Time;durP1;ratioP1;P1;durP2;ratioP2;P2;SDS_P1;SDS_P2;PMS_P1;PMS_P2;Temp;Humidity;BMP_temperature;BMP_pressure;BME280_temperature;BME280_humidity;BME280_pressure;Samples;Min_cycle;Max_cycle;Signal;HPM_P1;HPM_P2
2024/03/27 00:06:44;;;;;;;1.00;0.60;;;3.40;99.90;;;;;;20465739;29;20581;-40
2024/03/27 00:16:46;;;;;;;0.93;0.68;;;3.30;99.90;;;;;;20488606;29;20040;-39
2024/03/27 00:26:48;;;;;;;1.33;0.70;;;3.40;99.90;;;;;;20487681;29;20055;-41
2024/03/27 00:36:50;;;;;;;1.10;0.40;;;3.50;99.90;;;;;;20503103;28;20035;-40
2024/03/27 00:46:52;;;;;;;0.80;0.30;;;3.70;99.90;;;;;;20460838;29;20039;-40
2024/03/27 00:56:54;;;;;;;0.47;0.30;;;3.80;99.90;;;;;;20483129;29;20038;-42
2024/03/27 01:06:59;;;;;;;0.70;0.30;;;3.90;99.90;;;;;;20484633;29;20043;-40
2024/03/27 01:17:01;;;;;;;0.50;0.30;;;3.90;99.90;;;;;;20501650;29;20035;-39
2024/03/27 01:27:03;;;;;;;1.98;0.43;;;3.80;99.90;;;;;;20500163;29;20043;-40
2024/03/27 01:37:04;;;;;;;0.65;0.28;;;3.80;99.90;;;;;;20467762;29;20487;-40
2024/03/27 01:47:09;;;;;;;0.10;0.00;;;3.90;99.90;;;;;;20483862;28;20035;-39
2024/03/27 01:57:11;;;;;;;0.15;0.10;;;4.20;99.90;;;;;;20443211;29;20091;-39
2024/03/27 02:07:12;;;;;;;0.32;0.20;;;4.20;99.90;;;;;;20420292;29;20043;-39
2024/03/27 02:17:14;;;;;;;0.22;0.20;;;4.20;99.90;;;;;;20419838;29;20035;-40
2024/03/27 02:27:16;;;;;;;0.20;0.17;;;4.10;99.90;;;;;;20419701;29;20452;-40
2024/03/27 02:37:18;;;;;;;0.10;0.10;;;4.20;99.90;;;;;;20442775;29;20046;-41
2024/03/27 02:47:20;;;;;;;0.20;0.00;;;4.30;99.90;;;;;;20446638;29;20435;-43
2024/03/27 02:57:22;;;;;;;0.00;0.00;;;4.30;99.90;;;;;;20485327;28;20486;-42
2024/03/27 03:07:23;;;;;;;0.00;0.00;;;4.20;99.90;;;;;;20510619;29;20035;-44
2024/03/27 03:17:25;;;;;;;0.00;0.00;;;4.40;99.90;;;;;;20433277;29;20039;-44
2024/03/27 03:27:27;;;;;;;0.98;0.20;;;4.40;99.90;;;;;;20430825;29;20048;-43
2024/03/27 03:37:29;;;;;;;2.58;0.00;;;4.50;99.90;;;;;;20454389;29;20034;-43
2024/03/27 03:47:31;;;;;;;0.88;0.00;;;4.60;99.90;;;;;;20437491;29;20036;-43
2024/03/27 03:57:33;;;;;;;1.20;0.00;;;4.60;99.90;;;;;;20491044;29;20039;-43
2024/03/27 04:07:34;;;;;;;2.47;0.10;;;4.70;99.90;;;;;;20452265;28;20086;-45
2024/03/27 04:17:36;;;;;;;3.88;0.20;;;4.90;99.90;;;;;;20505590;29;20031;-43
2024/03/27 04:27:38;;;;;;;1.67;0.30;;;5.10;99.90;;;;;;20498699;29;20322;-43
2024/03/27 04:37:40;;;;;;;2.38;0.20;;;5.20;99.90;;;;;;20452608;29;20557;-42
2024/03/27 04:47:42;;;;;;;1.80;0.20;;;5.30;99.90;;;;;;20486512;29;20051;-46
2024/03/27 04:57:43;;;;;;;3.35;0.65;;;5.70;99.90;;;;;;20490022;29;20406;-42
2024/03/27 05:07:45;;;;;;;1.60;0.20;;;5.70;99.90;;;;;;20501564;29;20038;-41
2024/03/27 05:17:47;;;;;;;3.80;0.40;;;5.50;99.90;;;;;;20500853;28;20042;-41
2024/03/27 05:27:48;;;;;;;1.02;0.30;;;5.40;99.90;;;;;;20456809;29;20052;-43
2024/03/27 05:37:50;;;;;;;2.63;0.50;;;5.40;99.90;;;;;;20432196;29;20055;-45
2024/03/27 05:47:52;;;;;;;2.25;0.30;;;5.50;99.90;;;;;;20481708;29;20550;-41
2024/03/27 05:57:54;;;;;;;0.95;0.35;;;5.40;99.90;;;;;;20488337;29;20525;-41
2024/03/27 06:07:55;;;;;;;1.00;0.20;;;5.40;99.90;;;;;;20475918;29;20062;-46
2024/03/27 06:17:58;;;;;;;0.73;0.45;;;5.30;99.90;;;;;;20459395;29;20060;-41
2024/03/27 06:28:01;;;;;;;2.30;0.40;;;5.40;99.90;;;;;;20430890;29;20052;-48
2024/03/27 06:38:03;;;;;;;1.30;0.40;;;5.50;99.90;;;;;;20460041;29;20043;-43
2024/03/27 06:48:08;;;;;;;1.73;0.40;;;5.50;99.90;;;;;;20488126;29;20094;-41
2024/03/27 06:58:10;;;;;;;2.75;0.85;;;5.50;99.90;;;;;;20511348;29;20354;-44
2024/03/27 07:08:12;;;;;;;4.95;1.00;;;5.60;99.90;;;;;;20510731;29;20115;-42
2024/03/27 07:18:14;;;;;;;3.60;1.00;;;5.60;99.90;;;;;;20444927;29;20031;-41
2024/03/27 07:28:16;;;;;;;4.53;1.27;;;5.70;99.90;;;;;;20500692;29;20106;-40
2024/03/27 07:38:18;;;;;;;6.93;1.70;;;5.90;99.90;;;;;;20491191;29;20162;-46
2024/03/27 07:48:19;;;;;;;9.07;1.98;;;6.00;99.90;;;;;;20466621;28;20190;-40
2024/03/27 07:58:21;;;;;;;11.20;2.40;;;6.10;99.90;;;;;;20497283;29;20027;-41
2024/03/27 08:08:23;;;;;;;4.22;1.55;;;6.20;99.90;;;;;;20466275;29;20042;-41
2024/03/27 08:18:24;;;;;;;8.52;2.42;;;6.20;99.90;;;;;;20455058;29;20024;-44
2024/03/27 08:28:26;;;;;;;6.97;1.90;;;6.20;99.90;;;;;;20432496;29;20051;-47
2024/03/27 08:38:28;;;;;;;10.55;2.22;;;6.20;99.90;;;;;;20448122;29;20043;-41
2024/03/27 08:48:30;;;;;;;14.63;3.30;;;6.30;99.90;;;;;;20475450;29;20035;-45
2024/03/27 08:58:32;;;;;;;12.27;2.75;;;6.40;99.90;;;;;;20452424;28;20044;-42
2024/03/27 09:08:38;;;;;;;6.85;1.70;;;6.40;99.90;;;;;;20455804;29;20038;-42
2024/03/27 09:18:40;;;;;;;7.95;2.25;;;6.50;99.90;;;;;;20474769;29;20494;-41
2024/03/27 09:28:41;;;;;;;4.32;1.70;;;6.50;99.90;;;;;;20458478;29;20103;-42
2024/03/27 09:38:43;;;;;;;5.18;1.55;;;6.40;99.90;;;;;;20445498;29;20557;-43
2024/03/27 09:48:47;;;;;;;5.38;1.45;;;6.50;99.90;;;;;;20483354;29;20027;-41
2024/03/27 09:58:49;;;;;;;6.90;2.00;;;6.50;99.90;;;;;;20422591;29;20388;-44
2024/03/27 10:08:51;;;;;;;62.55;5.07;;;6.40;99.90;;;;;;20428756;29;20028;-42
2024/03/27 10:18:53;;;;;;;2.85;0.60;;;6.40;99.90;;;;;;20458654;29;20035;-46
2024/03/27 10:28:57;;;;;;;0.88;0.30;;;6.40;99.90;;;;;;20481617;29;20044;-40
2024/03/27 10:39:00;;;;;;;2.20;0.40;;;6.30;99.90;;;;;;20468150;29;20035;-42
2024/03/27 10:49:03;;;;;;;2.17;0.40;;;6.40;99.90;;;;;;20470560;29;20402;-46
2024/03/27 10:59:05;;;;;;;1.67;0.40;;;6.20;99.90;;;;;;20466005;29;20142;-40
2024/03/27 11:09:14;;;;;;;24.80;0.68;;;6.20;99.90;;;;;;20484510;29;20086;-43
2024/03/27 11:19:16;;;;;;;2.80;0.20;;;6.20;99.90;;;;;;20453409;28;20031;-42
2024/03/27 11:29:25;;;;;;;2.60;0.17;;;6.10;99.90;;;;;;20489346;29;20043;-43
2024/03/27 11:39:34;;;;;;;131.52;3.47;;;6.00;99.90;;;;;;20473065;29;20027;-45
2024/03/27 11:49:35;;;;;;;266.35;6.90;;;6.00;99.90;;;;;;20501900;29;20031;-44
2024/03/27 11:59:37;;;;;;;372.63;9.25;;;6.00;99.90;;;;;;20465480;29;20460;-41
2024/03/27 12:09:39;;;;;;;97.47;2.88;;;6.00;99.90;;;;;;20461841;29;20059;-44
2024/03/27 12:19:51;;;;;;;93.43;2.88;;;6.10;99.90;;;;;;20459623;29;20027;-41
2024/03/27 12:29:54;;;;;;;254.40;8.35;;;6.00;99.90;;;;;;20395571;29;20052;-41
2024/03/27 12:39:55;;;;;;;37.13;1.95;;;5.90;99.90;;;;;;20384055;29;20039;-45
2024/03/27 12:49:57;;;;;;;85.70;3.42;;;5.60;99.90;;;;;;20373162;29;20063;-45
2024/03/27 12:59:59;;;;;;;109.10;5.68;;;5.40;99.90;;;;;;20344338;29;20044;-41
2024/03/27 13:10:01;;;;;;;171.32;5.28;;;5.50;99.90;;;;;;20364606;29;20043;-47
2024/03/27 13:20:04;;;;;;;1.83;0.00;;;5.50;99.90;;;;;;20394532;29;20035;-44
2024/03/27 13:30:17;;;;;;;262.30;6.60;;;5.30;99.90;;;;;;20343761;29;20052;-41
2024/03/27 13:40:19;;;;;;;267.75;8.32;;;5.20;99.90;;;;;;20401028;29;20578;-45
2024/03/27 13:50:24;;;;;;;148.95;6.93;;;5.10;99.90;;;;;;20420273;29;20060;-44
2024/03/27 14:00:26;;;;;;;541.67;22.40;;;5.00;99.90;;;;;;20386539;29;20492;-48
2024/03/27 14:10:27;;;;;;;259.58;11.40;;;4.80;99.90;;;;;;20386678;29;20044;-47
2024/03/27 14:20:29;;;;;;;1.98;0.80;;;4.60;99.90;;;;;;20406973;29;20055;-45
2024/03/27 14:30:34;;;;;;;97.45;5.28;;;4.50;99.90;;;;;;20393240;29;20051;-48
2024/03/27 14:40:39;;;;;;;150.48;5.60;;;4.40;99.90;;;;;;20346280;29;20036;-41
2024/03/27 14:50:41;;;;;;;10.23;0.40;;;4.50;99.90;;;;;;20384034;29;20036;-37
2024/03/27 15:00:42;;;;;;;0.30;0.10;;;4.50;99.90;;;;;;20420920;29;20548;-44
2024/03/27 15:10:45;;;;;;;0.20;0.10;;;4.60;99.90;;;;;;20401475;29;20036;-42
2024/03/27 15:20:46;;;;;;;117.25;5.35;;;4.70;99.90;;;;;;20430425;29;20039;-39
2024/03/27 15:30:48;;;;;;;150.95;5.78;;;4.70;99.90;;;;;;20427779;29;20042;-40
2024/03/27 15:40:55;;;;;;;240.80;9.20;;;4.60;99.90;;;;;;20430755;29;20267;-43
2024/03/27 15:50:57;;;;;;;0.10;0.00;;;4.50;99.90;;;;;;20426613;29;20094;-44
2024/03/27 16:00:59;;;;;;;0.20;0.20;;;4.30;99.90;;;;;;20424651;29;20460;-40
2024/03/27 16:11:04;;;;;;;0.40;0.20;;;4.60;99.90;;;;;;20426180;29;20038;-45
2024/03/27 16:21:05;;;;;;;0.00;0.00;;;4.50;99.90;;;;;;20418418;29;20051;-45
2024/03/27 16:31:10;;;;;;;0.05;0.00;;;4.40;99.90;;;;;;20423410;29;20102;-39
2024/03/27 16:41:12;;;;;;;0.90;0.00;;;3.90;99.90;;;;;;20421994;29;20043;-39
2024/03/27 16:51:14;;;;;;;0.00;0.00;;;3.80;99.90;;;;;;20422516;29;20094;-40
2024/03/27 17:01:16;;;;;;;0.38;0.00;;;3.80;99.90;;;;;;20438252;29;20054;-39
2024/03/27 17:11:18;;;;;;;0.70;0.00;;;3.70;99.90;;;;;;20430592;29;20040;-39
2024/03/27 17:21:22;;;;;;;0.10;0.00;;;3.60;99.90;;;;;;20436458;29;20491;-39
2024/03/27 17:31:24;;;;;;;1.23;0.13;;;3.50;99.90;;;;;;20484614;29;20122;-40
2024/03/27 17:41:27;;;;;;;0.95;0.10;;;3.30;99.90;;;;;;20500747;29;20031;-39
2024/03/27 17:51:30;;;;;;;0.20;0.00;;;3.30;99.90;;;;;;20470710;29;20090;-39
2024/03/27 18:01:32;;;;;;;0.77;0.00;;;3.10;99.90;;;;;;20454541;29;20042;-39
2024/03/27 18:11:33;;;;;;;1.35;0.30;;;3.10;99.90;;;;;;20477354;29;20031;-39
2024/03/27 18:21:38;;;;;;;0.75;0.10;;;3.20;99.90;;;;;;20499113;28;20511;-39
2024/03/27 18:31:40;;;;;;;0.35;0.00;;;3.20;99.90;;;;;;20498535;28;20458;-39
2024/03/27 18:41:42;;;;;;;0.32;0.00;;;3.10;99.90;;;;;;20474613;29;20115;-39
2024/03/27 18:51:44;;;;;;;0.68;0.10;;;3.10;99.90;;;;;;20482757;29;20031;-39
2024/03/27 19:01:46;;;;;;;0.32;0.10;;;3.20;99.90;;;;;;20512478;29;20027;-40
2024/03/27 19:11:48;;;;;;;1.05;0.10;;;3.00;99.90;;;;;;20498140;29;20095;-39
2024/03/27 19:21:50;;;;;;;2.35;0.00;;;3.00;99.90;;;;;;20431532;29;20051;-39
2024/03/27 19:31:52;;;;;;;0.52;0.10;;;2.80;99.90;;;;;;20508424;29;20055;-39
2024/03/27 19:41:54;;;;;;;0.70;0.10;;;2.20;99.90;;;;;;20447842;29;20050;-39
2024/03/27 19:51:56;;;;;;;0.10;0.00;;;2.20;99.90;;;;;;20458399;29;20031;-39
2024/03/27 20:01:58;;;;;;;0.68;0.10;;;2.30;99.90;;;;;;20456122;29;20039;-40
2024/03/27 20:11:59;;;;;;;2.65;0.20;;;2.30;99.90;;;;;;20487637;29;20035;-39
2024/03/27 20:22:03;;;;;;;0.52;0.10;;;2.50;99.90;;;;;;20452778;29;20083;-39
2024/03/27 20:32:05;;;;;;;0.75;0.20;;;2.50;99.90;;;;;;20425579;29;20039;-39
2024/03/27 20:42:07;;;;;;;2.33;0.30;;;2.50;99.90;;;;;;20424460;29;20036;-40
2024/03/27 20:52:08;;;;;;;0.50;0.20;;;2.40;99.90;;;;;;20423822;29;20368;-40
2024/03/27 21:02:10;;;;;;;1.10;0.50;;;2.30;99.90;;;;;;20423097;29;20039;-39
2024/03/27 21:12:13;;;;;;;2.28;1.13;;;2.10;99.90;;;;;;20485087;29;20072;-39
2024/03/27 21:22:14;;;;;;;3.15;2.10;;;2.20;99.90;;;;;;20501287;29;20562;-40
2024/03/27 21:32:16;;;;;;;9.38;4.82;;;2.20;99.90;;;;;;20500778;29;20039;-39
2024/03/27 21:42:18;;;;;;;29.52;9.10;;;2.30;99.90;;;;;;20450717;29;20032;-40
2024/03/27 21:52:20;;;;;;;785.20;52.45;;;2.40;99.90;;;;;;20441018;29;20442;-39
2024/03/27 22:02:24;;;;;;;108.75;10.40;;;2.30;99.90;;;;;;20427894;29;20395;-40
2024/03/27 22:12:27;;;;;;;503.70;27.05;;;2.30;99.90;;;;;;20510712;28;20035;-39
2024/03/27 22:22:29;;;;;;;230.13;14.25;;;1.90;99.90;;;;;;20468270;28;20479;-39
2024/03/27 22:32:33;;;;;;;291.75;17.17;;;1.60;99.90;;;;;;20444275;29;20043;-39
2024/03/27 22:42:35;;;;;;;3.35;2.38;;;1.50;99.90;;;;;;20510690;29;20039;-40
2024/03/27 22:52:36;;;;;;;1.42;0.40;;;1.40;99.90;;;;;;20524341;28;20103;-40
2024/03/27 23:02:38;;;;;;;4.22;1.85;;;1.50;99.90;;;;;;20523827;28;20031;-40
2024/03/27 23:12:40;;;;;;;8.35;3.33;;;2.00;99.90;;;;;;20511435;28;20031;-40
2024/03/27 23:22:42;;;;;;;5.63;3.72;;;1.80;99.90;;;;;;20510312;29;20043;-40
2024/03/27 23:32:45;;;;;;;11.82;4.75;;;1.70;99.90;;;;;;20510642;29;20476;-40
2024/03/27 23:42:47;;;;;;;951.03;49.60;;;1.70;99.90;;;;;;20494690;29;20036;-40
2024/03/27 23:52:51;;;;;;;1651.13;98.57;;;1.70;99.90;;;;;;20456990;29;20130;-40
